sensor_id;sensor_type;location;lat;lon;timestamp;P1;durP1;ratioP1;P2;durP2;ratioP2
19810;SDS011;10065;49.632;8.346;2023-08-20T00:00:20;9.68;;;5.85;;
19810;SDS011;10065;49.632;8.346;2023-08-20T00:02:49;11.73;;;5.20;;
19810;SDS011;10065;49.632;8.346;2023-08-20T00:05:25;9.52;;;5.50;;
19810;SDS011;10065;49.632;8.346;2023-08-20T00:07:53;8.20;;;5.70;;
19810;SDS011;10065;49.632;8.346;2023-08-20T00:10:20;10.35;;;6.00;;
19810;SDS011;10065;49.632;8.346;2023-08-20T00:12:48;9.30;;;5.57;;
19810;SDS011;10065;49.632;8.346;2023-08-20T00:15:16;7.18;;;5.47;;
19810;SDS011;10065;49.632;8.346;2023-08-20T00:17:47;7.38;;;5.70;;
19810;SDS011;10065;49.632;8.346;2023-08-20T00:20:15;8.02;;;5.50;;
19810;SDS011;10065;49.632;8.346;2023-08-20T00:22:44;10.00;;;5.90;;
19810;SDS011;10065;49.632;8.346;2023-08-20T00:25:13;9.10;;;5.60;;
19810;SDS011;10065;49.632;8.346;2023-08-20T00:27:42;18.60;;;5.88;;
19810;SDS011;10065;49.632;8.346;2023-08-20T00:30:11;14.77;;;6.03;;
19810;SDS011;10065;49.632;8.346;2023-08-20T00:32:39;8.77;;;5.72;;
19810;SDS011;10065;49.632;8.346;2023-08-20T00:35:09;9.55;;;6.18;;
19810;SDS011;10065;49.632;8.346;2023-08-20T00:37:36;8.75;;;5.22;;
19810;SDS011;10065;49.632;8.346;2023-08-20T00:40:05;8.60;;;5.72;;
19810;SDS011;10065;49.632;8.346;2023-08-20T00:42:34;10.52;;;5.85;;
19810;SDS011;10065;49.632;8.346;2023-08-20T00:45:02;7.55;;;5.75;;
19810;SDS011;10065;49.632;8.346;2023-08-20T00:47:31;10.20;;;5.85;;
19810;SDS011;10065;49.632;8.346;2023-08-20T00:49:59;6.50;;;5.25;;
19810;SDS011;10065;49.632;8.346;2023-08-20T00:52:28;8.07;;;5.45;;
19810;SDS011;10065;49.632;8.346;2023-08-20T00:54:57;9.35;;;5.80;;
19810;SDS011;10065;49.632;8.346;2023-08-20T00:57:25;9.60;;;5.95;;
19810;SDS011;10065;49.632;8.346;2023-08-20T00:59:54;10.00;;;6.10;;
19810;SDS011;10065;49.632;8.346;2023-08-20T01:02:23;8.25;;;5.07;;
19810;SDS011;10065;49.632;8.346;2023-08-20T01:04:51;6.70;;;5.72;;
19810;SDS011;10065;49.632;8.346;2023-08-20T01:07:21;10.15;;;5.82;;
19810;SDS011;10065;49.632;8.346;2023-08-20T01:09:57;12.05;;;5.85;;
19810;SDS011;10065;49.632;8.346;2023-08-20T01:12:31;10.70;;;6.07;;
19810;SDS011;10065;49.632;8.346;2023-08-20T01:15:01;9.73;;;5.75;;
19810;SDS011;10065;49.632;8.346;2023-08-20T01:17:29;13.77;;;6.15;;
19810;SDS011;10065;49.632;8.346;2023-08-20T01:19:57;9.00;;;6.00;;
19810;SDS011;10065;49.632;8.346;2023-08-20T01:22:40;7.18;;;5.82;;
19810;SDS011;10065;49.632;8.346;2023-08-20T01:25:29;8.38;;;6.03;;
19810;SDS011;10065;49.632;8.346;2023-08-20T01:30:45;9.55;;;6.53;;
19810;SDS011;10065;49.632;8.346;2023-08-20T01:33:14;9.60;;;6.60;;
19810;SDS011;10065;49.632;8.346;2023-08-20T01:35:42;13.52;;;6.95;;
19810;SDS011;10065;49.632;8.346;2023-08-20T01:38:10;12.43;;;6.75;;
19810;SDS011;10065;49.632;8.346;2023-08-20T01:40:37;11.55;;;6.55;;
19810;SDS011;10065;49.632;8.346;2023-08-20T01:43:05;9.13;;;6.80;;
19810;SDS011;10065;49.632;8.346;2023-08-20T01:45:34;9.32;;;6.53;;
19810;SDS011;10065;49.632;8.346;2023-08-20T01:48:02;8.43;;;6.10;;
19810;SDS011;10065;49.632;8.346;2023-08-20T01:50:31;9.50;;;6.93;;
19810;SDS011;10065;49.632;8.346;2023-08-20T01:52:58;12.02;;;6.70;;
19810;SDS011;10065;49.632;8.346;2023-08-20T01:55:26;11.63;;;6.78;;
19810;SDS011;10065;49.632;8.346;2023-08-20T01:57:57;9.00;;;6.05;;
19810;SDS011;10065;49.632;8.346;2023-08-20T02:00:25;9.82;;;6.47;;
19810;SDS011;10065;49.632;8.346;2023-08-20T02:02:56;8.52;;;5.95;;
19810;SDS011;10065;49.632;8.346;2023-08-20T02:05:24;11.35;;;6.60;;
19810;SDS011;10065;49.632;8.346;2023-08-20T02:07:53;7.20;;;6.13;;
19810;SDS011;10065;49.632;8.346;2023-08-20T02:10:21;8.13;;;6.10;;
19810;SDS011;10065;49.632;8.346;2023-08-20T02:12:48;10.05;;;6.47;;
19810;SDS011;10065;49.632;8.346;2023-08-20T02:15:16;9.52;;;6.15;;
19810;SDS011;10065;49.632;8.346;2023-08-20T02:17:44;11.20;;;6.95;;
19810;SDS011;10065;49.632;8.346;2023-08-20T02:20:13;9.10;;;6.40;;
19810;SDS011;10065;49.632;8.346;2023-08-20T02:22:41;8.65;;;6.03;;
19810;SDS011;10065;49.632;8.346;2023-08-20T02:25:09;9.77;;;6.55;;
19810;SDS011;10065;49.632;8.346;2023-08-20T02:27:37;7.53;;;5.95;;
19810;SDS011;10065;49.632;8.346;2023-08-20T02:30:05;12.70;;;6.53;;
19810;SDS011;10065;49.632;8.346;2023-08-20T02:32:34;9.60;;;6.05;;
19810;SDS011;10065;49.632;8.346;2023-08-20T02:35:02;9.98;;;6.65;;
19810;SDS011;10065;49.632;8.346;2023-08-20T02:37:33;11.60;;;5.82;;
19810;SDS011;10065;49.632;8.346;2023-08-20T02:40:02;8.60;;;6.22;;
19810;SDS011;10065;49.632;8.346;2023-08-20T02:42:31;8.95;;;6.65;;
19810;SDS011;10065;49.632;8.346;2023-08-20T02:44:58;8.05;;;6.07;;
19810;SDS011;10065;49.632;8.346;2023-08-20T02:47:26;8.38;;;6.15;;
19810;SDS011;10065;49.632;8.346;2023-08-20T02:49:54;7.40;;;5.63;;
19810;SDS011;10065;49.632;8.346;2023-08-20T02:52:21;12.52;;;6.35;;
19810;SDS011;10065;49.632;8.346;2023-08-20T02:54:50;7.68;;;6.10;;
19810;SDS011;10065;49.632;8.346;2023-08-20T02:57:18;10.27;;;6.20;;
19810;SDS011;10065;49.632;8.346;2023-08-20T02:59:47;11.98;;;6.50;;
19810;SDS011;10065;49.632;8.346;2023-08-20T03:02:15;13.27;;;6.45;;
19810;SDS011;10065;49.632;8.346;2023-08-20T03:04:43;11.85;;;6.65;;
19810;SDS011;10065;49.632;8.346;2023-08-20T03:07:11;7.00;;;5.97;;
19810;SDS011;10065;49.632;8.346;2023-08-20T03:09:39;8.27;;;6.43;;
19810;SDS011;10065;49.632;8.346;2023-08-20T03:12:08;13.77;;;6.65;;
19810;SDS011;10065;49.632;8.346;2023-08-20T03:14:36;6.78;;;6.00;;
19810;SDS011;10065;49.632;8.346;2023-08-20T03:17:04;10.75;;;6.20;;
19810;SDS011;10065;49.632;8.346;2023-08-20T03:19:33;7.28;;;5.93;;
19810;SDS011;10065;49.632;8.346;2023-08-20T03:22:01;11.65;;;6.95;;
19810;SDS011;10065;49.632;8.346;2023-08-20T03:24:29;12.30;;;6.43;;
19810;SDS011;10065;49.632;8.346;2023-08-20T03:26:56;8.88;;;6.43;;
19810;SDS011;10065;49.632;8.346;2023-08-20T03:29:25;8.70;;;6.40;;
19810;SDS011;10065;49.632;8.346;2023-08-20T03:31:53;7.78;;;6.20;;
19810;SDS011;10065;49.632;8.346;2023-08-20T03:34:21;10.82;;;6.47;;
19810;SDS011;10065;49.632;8.346;2023-08-20T03:36:49;8.52;;;6.63;;
19810;SDS011;10065;49.632;8.346;2023-08-20T03:39:17;12.40;;;7.10;;
19810;SDS011;10065;49.632;8.346;2023-08-20T03:41:46;7.93;;;5.90;;
19810;SDS011;10065;49.632;8.346;2023-08-20T03:44:13;8.05;;;6.43;;
19810;SDS011;10065;49.632;8.346;2023-08-20T03:46:42;9.63;;;7.55;;
19810;SDS011;10065;49.632;8.346;2023-08-20T03:49:10;10.32;;;6.93;;
19810;SDS011;10065;49.632;8.346;2023-08-20T03:51:38;12.63;;;6.82;;
19810;SDS011;10065;49.632;8.346;2023-08-20T03:54:07;10.52;;;6.68;;
19810;SDS011;10065;49.632;8.346;2023-08-20T03:56:34;11.65;;;7.35;;
19810;SDS011;10065;49.632;8.346;2023-08-20T03:59:03;10.82;;;6.78;;
19810;SDS011;10065;49.632;8.346;2023-08-20T04:01:30;9.07;;;6.70;;
19810;SDS011;10065;49.632;8.346;2023-08-20T04:04:00;10.82;;;7.43;;
19810;SDS011;10065;49.632;8.346;2023-08-20T04:06:27;11.75;;;7.35;;
19810;SDS011;10065;49.632;8.346;2023-08-20T04:08:55;9.60;;;7.15;;
19810;SDS011;10065;49.632;8.346;2023-08-20T04:11:23;12.38;;;7.50;;
19810;SDS011;10065;49.632;8.346;2023-08-20T04:13:51;11.57;;;7.55;;
19810;SDS011;10065;49.632;8.346;2023-08-20T04:16:18;8.80;;;6.93;;
19810;SDS011;10065;49.632;8.346;2023-08-20T04:18:46;12.43;;;7.78;;
19810;SDS011;10065;49.632;8.346;2023-08-20T04:21:15;10.50;;;7.55;;
19810;SDS011;10065;49.632;8.346;2023-08-20T04:23:43;11.60;;;7.78;;
19810;SDS011;10065;49.632;8.346;2023-08-20T04:26:11;11.18;;;7.25;;
19810;SDS011;10065;49.632;8.346;2023-08-20T04:28:39;11.63;;;6.55;;
19810;SDS011;10065;49.632;8.346;2023-08-20T04:31:07;8.90;;;7.50;;
19810;SDS011;10065;49.632;8.346;2023-08-20T04:33:34;8.93;;;7.60;;
19810;SDS011;10065;49.632;8.346;2023-08-20T04:36:02;10.30;;;7.03;;
19810;SDS011;10065;49.632;8.346;2023-08-20T04:38:31;12.48;;;7.38;;
19810;SDS011;10065;49.632;8.346;2023-08-20T04:40:59;8.95;;;6.65;;
19810;SDS011;10065;49.632;8.346;2023-08-20T04:43:27;9.88;;;6.95;;
19810;SDS011;10065;49.632;8.346;2023-08-20T04:45:55;11.88;;;7.32;;
19810;SDS011;10065;49.632;8.346;2023-08-20T04:48:23;11.13;;;6.93;;
19810;SDS011;10065;49.632;8.346;2023-08-20T04:50:51;13.40;;;7.35;;
19810;SDS011;10065;49.632;8.346;2023-08-20T04:53:18;11.30;;;7.13;;
19810;SDS011;10065;49.632;8.346;2023-08-20T04:55:47;10.30;;;7.43;;
19810;SDS011;10065;49.632;8.346;2023-08-20T04:58:15;11.07;;;7.30;;
19810;SDS011;10065;49.632;8.346;2023-08-20T05:00:43;9.88;;;6.70;;
19810;SDS011;10065;49.632;8.346;2023-08-20T05:03:11;13.25;;;7.00;;
19810;SDS011;10065;49.632;8.346;2023-08-20T05:05:38;9.88;;;7.32;;
19810;SDS011;10065;49.632;8.346;2023-08-20T05:08:06;16.63;;;8.52;;
19810;SDS011;10065;49.632;8.346;2023-08-20T05:10:35;12.73;;;8.43;;
19810;SDS011;10065;49.632;8.346;2023-08-20T05:13:05;23.52;;;9.85;;
19810;SDS011;10065;49.632;8.346;2023-08-20T05:15:32;13.25;;;8.25;;
19810;SDS011;10065;49.632;8.346;2023-08-20T05:18:01;16.02;;;8.70;;
19810;SDS011;10065;49.632;8.346;2023-08-20T05:20:28;11.57;;;7.43;;
19810;SDS011;10065;49.632;8.346;2023-08-20T05:22:56;13.55;;;7.22;;
19810;SDS011;10065;49.632;8.346;2023-08-20T05:25:24;10.65;;;7.57;;
19810;SDS011;10065;49.632;8.346;2023-08-20T05:27:52;16.98;;;8.00;;
19810;SDS011;10065;49.632;8.346;2023-08-20T05:30:21;10.90;;;6.63;;
19810;SDS011;10065;49.632;8.346;2023-08-20T05:32:48;13.35;;;7.47;;
19810;SDS011;10065;49.632;8.346;2023-08-20T05:35:16;11.05;;;7.00;;
19810;SDS011;10065;49.632;8.346;2023-08-20T05:37:44;10.55;;;6.70;;
19810;SDS011;10065;49.632;8.346;2023-08-20T05:40:12;19.35;;;6.97;;
19810;SDS011;10065;49.632;8.346;2023-08-20T05:42:39;14.10;;;6.70;;
19810;SDS011;10065;49.632;8.346;2023-08-20T05:45:07;10.05;;;7.55;;
19810;SDS011;10065;49.632;8.346;2023-08-20T05:47:37;16.00;;;7.10;;
19810;SDS011;10065;49.632;8.346;2023-08-20T05:50:05;9.38;;;6.70;;
19810;SDS011;10065;49.632;8.346;2023-08-20T05:52:33;13.10;;;6.95;;
19810;SDS011;10065;49.632;8.346;2023-08-20T05:55:02;14.07;;;7.85;;
19810;SDS011;10065;49.632;8.346;2023-08-20T05:57:32;9.48;;;7.05;;
19810;SDS011;10065;49.632;8.346;2023-08-20T05:59:59;10.88;;;7.13;;
19810;SDS011;10065;49.632;8.346;2023-08-20T06:02:27;9.77;;;6.80;;
19810;SDS011;10065;49.632;8.346;2023-08-20T06:04:56;11.77;;;7.93;;
19810;SDS011;10065;49.632;8.346;2023-08-20T06:07:26;8.18;;;6.65;;
19810;SDS011;10065;49.632;8.346;2023-08-20T06:09:54;9.63;;;7.35;;
19810;SDS011;10065;49.632;8.346;2023-08-20T06:12:23;10.52;;;7.50;;
19810;SDS011;10065;49.632;8.346;2023-08-20T06:14:51;16.33;;;7.85;;
19810;SDS011;10065;49.632;8.346;2023-08-20T06:17:18;10.48;;;7.28;;
19810;SDS011;10065;49.632;8.346;2023-08-20T06:19:46;10.25;;;6.88;;
19810;SDS011;10065;49.632;8.346;2023-08-20T06:22:15;10.55;;;7.35;;
19810;SDS011;10065;49.632;8.346;2023-08-20T06:24:43;11.82;;;7.68;;
19810;SDS011;10065;49.632;8.346;2023-08-20T06:27:10;9.27;;;7.10;;
19810;SDS011;10065;49.632;8.346;2023-08-20T06:29:38;8.00;;;6.97;;
19810;SDS011;10065;49.632;8.346;2023-08-20T06:32:06;15.15;;;7.22;;
19810;SDS011;10065;49.632;8.346;2023-08-20T06:34:34;10.38;;;7.38;;
19810;SDS011;10065;49.632;8.346;2023-08-20T06:37:03;12.07;;;7.40;;
19810;SDS011;10065;49.632;8.346;2023-08-20T06:39:32;10.07;;;7.25;;
19810;SDS011;10065;49.632;8.346;2023-08-20T06:42:00;12.43;;;6.85;;
19810;SDS011;10065;49.632;8.346;2023-08-20T06:44:28;14.98;;;7.32;;
19810;SDS011;10065;49.632;8.346;2023-08-20T06:46:56;11.57;;;7.35;;
19810;SDS011;10065;49.632;8.346;2023-08-20T06:49:26;18.20;;;7.32;;
19810;SDS011;10065;49.632;8.346;2023-08-20T06:51:55;9.48;;;6.90;;
19810;SDS011;10065;49.632;8.346;2023-08-20T06:54:23;8.52;;;7.10;;
19810;SDS011;10065;49.632;8.346;2023-08-20T06:56:54;10.02;;;7.00;;
19810;SDS011;10065;49.632;8.346;2023-08-20T06:59:22;10.05;;;6.80;;
19810;SDS011;10065;49.632;8.346;2023-08-20T07:01:50;13.60;;;7.05;;
19810;SDS011;10065;49.632;8.346;2023-08-20T07:04:17;9.23;;;6.63;;
19810;SDS011;10065;49.632;8.346;2023-08-20T07:06:45;10.85;;;6.63;;
19810;SDS011;10065;49.632;8.346;2023-08-20T07:09:13;12.07;;;6.53;;
19810;SDS011;10065;49.632;8.346;2023-08-20T07:11:42;13.68;;;7.57;;
19810;SDS011;10065;49.632;8.346;2023-08-20T07:14:14;8.20;;;5.97;;
19810;SDS011;10065;49.632;8.346;2023-08-20T07:16:42;12.45;;;7.35;;
19810;SDS011;10065;49.632;8.346;2023-08-20T07:19:09;9.20;;;6.70;;
19810;SDS011;10065;49.632;8.346;2023-08-20T07:21:37;8.65;;;6.78;;
19810;SDS011;10065;49.632;8.346;2023-08-20T07:24:05;13.70;;;7.25;;
19810;SDS011;10065;49.632;8.346;2023-08-20T07:26:33;7.43;;;6.30;;
19810;SDS011;10065;49.632;8.346;2023-08-20T07:29:04;14.20;;;7.30;;
19810;SDS011;10065;49.632;8.346;2023-08-20T07:31:33;9.40;;;7.22;;
19810;SDS011;10065;49.632;8.346;2023-08-20T07:34:02;9.75;;;6.65;;
19810;SDS011;10065;49.632;8.346;2023-08-20T07:36:31;11.75;;;6.72;;
19810;SDS011;10065;49.632;8.346;2023-08-20T07:39:00;12.15;;;6.80;;
19810;SDS011;10065;49.632;8.346;2023-08-20T07:41:28;10.00;;;6.80;;
19810;SDS011;10065;49.632;8.346;2023-08-20T07:43:57;10.93;;;6.28;;
19810;SDS011;10065;49.632;8.346;2023-08-20T07:46:24;9.40;;;7.00;;
19810;SDS011;10065;49.632;8.346;2023-08-20T07:48:53;10.88;;;6.97;;
19810;SDS011;10065;49.632;8.346;2023-08-20T07:51:21;9.27;;;6.82;;
19810;SDS011;10065;49.632;8.346;2023-08-20T07:53:49;9.15;;;6.60;;
19810;SDS011;10065;49.632;8.346;2023-08-20T07:56:17;9.35;;;6.50;;
19810;SDS011;10065;49.632;8.346;2023-08-20T07:58:44;10.77;;;7.28;;
19810;SDS011;10065;49.632;8.346;2023-08-20T08:01:12;13.18;;;6.90;;
19810;SDS011;10065;49.632;8.346;2023-08-20T08:03:40;11.13;;;7.47;;
19810;SDS011;10065;49.632;8.346;2023-08-20T08:06:09;11.73;;;6.97;;
19810;SDS011;10065;49.632;8.346;2023-08-20T08:08:37;8.88;;;7.05;;
19810;SDS011;10065;49.632;8.346;2023-08-20T08:11:09;8.65;;;7.00;;
19810;SDS011;10065;49.632;8.346;2023-08-20T08:13:36;10.05;;;6.78;;
19810;SDS011;10065;49.632;8.346;2023-08-20T08:16:04;7.47;;;6.65;;
19810;SDS011;10065;49.632;8.346;2023-08-20T08:18:32;12.23;;;6.80;;
19810;SDS011;10065;49.632;8.346;2023-08-20T08:20:59;13.52;;;7.00;;
19810;SDS011;10065;49.632;8.346;2023-08-20T08:23:29;11.15;;;6.80;;
19810;SDS011;10065;49.632;8.346;2023-08-20T08:25:56;13.02;;;7.43;;
19810;SDS011;10065;49.632;8.346;2023-08-20T08:28:24;9.68;;;7.00;;
19810;SDS011;10065;49.632;8.346;2023-08-20T08:30:52;13.60;;;7.57;;
19810;SDS011;10065;49.632;8.346;2023-08-20T08:33:19;8.70;;;6.80;;
19810;SDS011;10065;49.632;8.346;2023-08-20T08:35:47;11.48;;;7.32;;
19810;SDS011;10065;49.632;8.346;2023-08-20T08:38:15;12.60;;;6.65;;
19810;SDS011;10065;49.632;8.346;2023-08-20T08:40:44;8.60;;;6.55;;
19810;SDS011;10065;49.632;8.346;2023-08-20T08:43:12;9.93;;;6.03;;
19810;SDS011;10065;49.632;8.346;2023-08-20T08:45:44;12.93;;;6.28;;
19810;SDS011;10065;49.632;8.346;2023-08-20T08:48:15;10.82;;;6.10;;
19810;SDS011;10065;49.632;8.346;2023-08-20T08:50:43;9.82;;;7.15;;
19810;SDS011;10065;49.632;8.346;2023-08-20T08:53:11;17.08;;;11.80;;
19810;SDS011;10065;49.632;8.346;2023-08-20T08:55:40;24.15;;;20.48;;
19810;SDS011;10065;49.632;8.346;2023-08-20T08:58:10;19.77;;;13.63;;
19810;SDS011;10065;49.632;8.346;2023-08-20T09:00:38;12.63;;;7.97;;
19810;SDS011;10065;49.632;8.346;2023-08-20T09:03:06;10.80;;;7.97;;
19810;SDS011;10065;49.632;8.346;2023-08-20T09:05:45;13.05;;;5.90;;
19810;SDS011;10065;49.632;8.346;2023-08-20T09:08:18;11.25;;;6.70;;
19810;SDS011;10065;49.632;8.346;2023-08-20T09:10:49;11.65;;;6.78;;
19810;SDS011;10065;49.632;8.346;2023-08-20T09:13:23;9.95;;;6.53;;
19810;SDS011;10065;49.632;8.346;2023-08-20T09:15:52;13.93;;;8.43;;
19810;SDS011;10065;49.632;8.346;2023-08-20T09:18:20;8.40;;;6.63;;
19810;SDS011;10065;49.632;8.346;2023-08-20T09:20:48;9.00;;;6.50;;
19810;SDS011;10065;49.632;8.346;2023-08-20T09:23:17;13.50;;;6.53;;
19810;SDS011;10065;49.632;8.346;2023-08-20T09:25:44;10.10;;;6.28;;
19810;SDS011;10065;49.632;8.346;2023-08-20T09:28:12;11.43;;;6.57;;
19810;SDS011;10065;49.632;8.346;2023-08-20T09:30:44;9.50;;;6.03;;
19810;SDS011;10065;49.632;8.346;2023-08-20T09:33:22;11.43;;;6.53;;
19810;SDS011;10065;49.632;8.346;2023-08-20T09:35:50;8.65;;;5.88;;
19810;SDS011;10065;49.632;8.346;2023-08-20T09:38:20;10.20;;;5.85;;
19810;SDS011;10065;49.632;8.346;2023-08-20T09:40:49;11.30;;;6.40;;
19810;SDS011;10065;49.632;8.346;2023-08-20T09:43:18;14.93;;;6.40;;
19810;SDS011;10065;49.632;8.346;2023-08-20T09:45:48;11.63;;;5.93;;
19810;SDS011;10065;49.632;8.346;2023-08-20T09:48:17;9.73;;;5.82;;
19810;SDS011;10065;49.632;8.346;2023-08-20T09:50:46;10.55;;;6.15;;
19810;SDS011;10065;49.632;8.346;2023-08-20T09:53:17;10.93;;;5.85;;
19810;SDS011;10065;49.632;8.346;2023-08-20T09:55:50;7.35;;;5.18;;
19810;SDS011;10065;49.632;8.346;2023-08-20T09:58:19;11.60;;;5.95;;
19810;SDS011;10065;49.632;8.346;2023-08-20T10:00:52;16.88;;;6.03;;
19810;SDS011;10065;49.632;8.346;2023-08-20T10:03:20;9.93;;;7.05;;
19810;SDS011;10065;49.632;8.346;2023-08-20T10:05:49;9.35;;;5.50;;
19810;SDS011;10065;49.632;8.346;2023-08-20T10:08:18;9.55;;;6.00;;
19810;SDS011;10065;49.632;8.346;2023-08-20T10:10:46;9.18;;;5.57;;
19810;SDS011;10065;49.632;8.346;2023-08-20T10:13:14;11.00;;;5.95;;
19810;SDS011;10065;49.632;8.346;2023-08-20T10:15:43;10.10;;;4.78;;
19810;SDS011;10065;49.632;8.346;2023-08-20T10:18:13;8.50;;;5.75;;
19810;SDS011;10065;49.632;8.346;2023-08-20T10:20:41;9.98;;;6.88;;
19810;SDS011;10065;49.632;8.346;2023-08-20T10:23:09;8.18;;;6.25;;
19810;SDS011;10065;49.632;8.346;2023-08-20T10:25:40;9.52;;;6.45;;
19810;SDS011;10065;49.632;8.346;2023-08-20T10:28:11;8.52;;;6.28;;
19810;SDS011;10065;49.632;8.346;2023-08-20T10:33:32;7.80;;;6.20;;
19810;SDS011;10065;49.632;8.346;2023-08-20T10:36:07;8.13;;;5.97;;
19810;SDS011;10065;49.632;8.346;2023-08-20T10:38:36;10.48;;;5.57;;
19810;SDS011;10065;49.632;8.346;2023-08-20T10:41:06;9.43;;;5.30;;
19810;SDS011;10065;49.632;8.346;2023-08-20T10:43:35;7.25;;;4.93;;
19810;SDS011;10065;49.632;8.346;2023-08-20T10:46:08;8.23;;;5.55;;
19810;SDS011;10065;49.632;8.346;2023-08-20T10:48:44;8.65;;;5.60;;
19810;SDS011;10065;49.632;8.346;2023-08-20T10:51:15;9.95;;;5.82;;
19810;SDS011;10065;49.632;8.346;2023-08-20T10:53:48;9.82;;;5.38;;
19810;SDS011;10065;49.632;8.346;2023-08-20T10:56:38;11.00;;;5.70;;
19810;SDS011;10065;49.632;8.346;2023-08-20T10:59:07;10.18;;;5.03;;
19810;SDS011;10065;49.632;8.346;2023-08-20T11:01:36;8.38;;;5.53;;
19810;SDS011;10065;49.632;8.346;2023-08-20T11:04:06;10.95;;;5.15;;
19810;SDS011;10065;49.632;8.346;2023-08-20T11:06:33;9.20;;;5.45;;
19810;SDS011;10065;49.632;8.346;2023-08-20T11:09:01;7.38;;;4.82;;
19810;SDS011;10065;49.632;8.346;2023-08-20T11:11:31;9.20;;;5.90;;
19810;SDS011;10065;49.632;8.346;2023-08-20T11:14:04;8.80;;;4.80;;
19810;SDS011;10065;49.632;8.346;2023-08-20T11:16:32;8.40;;;6.00;;
19810;SDS011;10065;49.632;8.346;2023-08-20T11:19:00;7.25;;;4.80;;
19810;SDS011;10065;49.632;8.346;2023-08-20T11:21:33;8.98;;;5.50;;
19810;SDS011;10065;49.632;8.346;2023-08-20T11:24:01;10.10;;;5.63;;
19810;SDS011;10065;49.632;8.346;2023-08-20T11:26:29;7.10;;;5.13;;
19810;SDS011;10065;49.632;8.346;2023-08-20T11:28:57;10.77;;;5.82;;
19810;SDS011;10065;49.632;8.346;2023-08-20T11:31:25;10.80;;;4.70;;
19810;SDS011;10065;49.632;8.346;2023-08-20T11:33:53;9.23;;;5.40;;
19810;SDS011;10065;49.632;8.346;2023-08-20T11:36:20;9.80;;;4.90;;
19810;SDS011;10065;49.632;8.346;2023-08-20T11:38:50;6.38;;;4.88;;
19810;SDS011;10065;49.632;8.346;2023-08-20T11:41:19;6.47;;;4.95;;
19810;SDS011;10065;49.632;8.346;2023-08-20T11:43:47;7.70;;;5.18;;
19810;SDS011;10065;49.632;8.346;2023-08-20T11:46:15;6.00;;;5.00;;
19810;SDS011;10065;49.632;8.346;2023-08-20T11:48:58;6.72;;;4.88;;
19810;SDS011;10065;49.632;8.346;2023-08-20T11:51:26;8.30;;;5.38;;
19810;SDS011;10065;49.632;8.346;2023-08-20T11:53:56;10.18;;;4.82;;
19810;SDS011;10065;49.632;8.346;2023-08-20T11:56:24;8.32;;;5.20;;
19810;SDS011;10065;49.632;8.346;2023-08-20T11:58:58;9.18;;;5.63;;
19810;SDS011;10065;49.632;8.346;2023-08-20T12:01:29;6.82;;;5.00;;
19810;SDS011;10065;49.632;8.346;2023-08-20T12:03:59;9.55;;;5.05;;
19810;SDS011;10065;49.632;8.346;2023-08-20T12:06:28;8.57;;;5.07;;
19810;SDS011;10065;49.632;8.346;2023-08-20T12:08:58;7.88;;;5.25;;
19810;SDS011;10065;49.632;8.346;2023-08-20T12:11:26;8.68;;;4.90;;
19810;SDS011;10065;49.632;8.346;2023-08-20T12:13:54;9.82;;;5.85;;
19810;SDS011;10065;49.632;8.346;2023-08-20T12:16:23;6.78;;;4.20;;
19810;SDS011;10065;49.632;8.346;2023-08-20T12:18:51;9.48;;;4.18;;
19810;SDS011;10065;49.632;8.346;2023-08-20T12:21:20;7.35;;;4.50;;
19810;SDS011;10065;49.632;8.346;2023-08-20T12:23:47;10.65;;;4.70;;
19810;SDS011;10065;49.632;8.346;2023-08-20T12:26:17;7.20;;;5.13;;
19810;SDS011;10065;49.632;8.346;2023-08-20T12:28:45;7.28;;;4.80;;
19810;SDS011;10065;49.632;8.346;2023-08-20T12:31:12;6.22;;;3.90;;
19810;SDS011;10065;49.632;8.346;2023-08-20T12:33:40;6.20;;;4.68;;
19810;SDS011;10065;49.632;8.346;2023-08-20T12:36:08;11.13;;;5.60;;
19810;SDS011;10065;49.632;8.346;2023-08-20T12:38:36;4.90;;;3.72;;
19810;SDS011;10065;49.632;8.346;2023-08-20T12:41:04;7.70;;;4.68;;
19810;SDS011;10065;49.632;8.346;2023-08-20T12:43:33;8.40;;;4.03;;
19810;SDS011;10065;49.632;8.346;2023-08-20T12:46:01;7.18;;;3.90;;
19810;SDS011;10065;49.632;8.346;2023-08-20T12:48:29;8.35;;;4.55;;
19810;SDS011;10065;49.632;8.346;2023-08-20T12:50:57;6.60;;;4.20;;
19810;SDS011;10065;49.632;8.346;2023-08-20T12:53:25;5.95;;;3.85;;
19810;SDS011;10065;49.632;8.346;2023-08-20T12:55:53;9.10;;;3.83;;
19810;SDS011;10065;49.632;8.346;2023-08-20T12:58:20;10.63;;;4.25;;
19810;SDS011;10065;49.632;8.346;2023-08-20T13:00:50;7.32;;;4.13;;
19810;SDS011;10065;49.632;8.346;2023-08-20T13:03:18;11.90;;;4.70;;
19810;SDS011;10065;49.632;8.346;2023-08-20T13:05:46;6.47;;;4.43;;
19810;SDS011;10065;49.632;8.346;2023-08-20T13:08:15;9.02;;;4.47;;
19810;SDS011;10065;49.632;8.346;2023-08-20T13:10:44;7.43;;;4.30;;
19810;SDS011;10065;49.632;8.346;2023-08-20T13:13:17;6.30;;;4.15;;
19810;SDS011;10065;49.632;8.346;2023-08-20T13:15:50;8.55;;;4.38;;
19810;SDS011;10065;49.632;8.346;2023-08-20T13:18:19;11.20;;;4.97;;
19810;SDS011;10065;49.632;8.346;2023-08-20T13:20:51;9.05;;;5.05;;
19810;SDS011;10065;49.632;8.346;2023-08-20T13:23:19;10.63;;;4.75;;
19810;SDS011;10065;49.632;8.346;2023-08-20T13:25:47;7.05;;;4.88;;
19810;SDS011;10065;49.632;8.346;2023-08-20T13:28:15;7.60;;;4.47;;
19810;SDS011;10065;49.632;8.346;2023-08-20T13:30:44;7.95;;;4.60;;
19810;SDS011;10065;49.632;8.346;2023-08-20T13:33:13;6.15;;;4.13;;
19810;SDS011;10065;49.632;8.346;2023-08-20T13:35:41;7.72;;;4.35;;
19810;SDS011;10065;49.632;8.346;2023-08-20T13:38:09;7.45;;;4.47;;
19810;SDS011;10065;49.632;8.346;2023-08-20T13:40:36;8.25;;;4.53;;
19810;SDS011;10065;49.632;8.346;2023-08-20T13:43:04;5.60;;;3.90;;
19810;SDS011;10065;49.632;8.346;2023-08-20T13:45:32;6.88;;;4.47;;
19810;SDS011;10065;49.632;8.346;2023-08-20T13:48:00;5.43;;;3.83;;
19810;SDS011;10065;49.632;8.346;2023-08-20T13:50:30;8.75;;;4.13;;
19810;SDS011;10065;49.632;8.346;2023-08-20T13:52:58;7.43;;;4.18;;
19810;SDS011;10065;49.632;8.346;2023-08-20T13:55:27;8.23;;;4.15;;
19810;SDS011;10065;49.632;8.346;2023-08-20T13:57:57;10.00;;;4.70;;
19810;SDS011;10065;49.632;8.346;2023-08-20T14:00:25;6.03;;;3.67;;
19810;SDS011;10065;49.632;8.346;2023-08-20T14:02:52;6.55;;;4.20;;
19810;SDS011;10065;49.632;8.346;2023-08-20T14:05:20;10.85;;;6.40;;
19810;SDS011;10065;49.632;8.346;2023-08-20T14:07:50;11.45;;;5.43;;
19810;SDS011;10065;49.632;8.346;2023-08-20T14:10:17;11.88;;;5.43;;
19810;SDS011;10065;49.632;8.346;2023-08-20T14:12:45;7.97;;;5.03;;
19810;SDS011;10065;49.632;8.346;2023-08-20T14:15:13;7.93;;;4.30;;
19810;SDS011;10065;49.632;8.346;2023-08-20T14:17:41;10.15;;;4.60;;
19810;SDS011;10065;49.632;8.346;2023-08-20T14:20:09;8.35;;;4.40;;
19810;SDS011;10065;49.632;8.346;2023-08-20T14:22:37;7.20;;;4.18;;
19810;SDS011;10065;49.632;8.346;2023-08-20T14:25:07;9.45;;;3.92;;
19810;SDS011;10065;49.632;8.346;2023-08-20T14:27:35;6.97;;;3.88;;
19810;SDS011;10065;49.632;8.346;2023-08-20T14:30:04;11.48;;;4.78;;
19810;SDS011;10065;49.632;8.346;2023-08-20T14:32:34;8.52;;;4.25;;
19810;SDS011;10065;49.632;8.346;2023-08-20T14:35:06;8.45;;;4.00;;
19810;SDS011;10065;49.632;8.346;2023-08-20T14:37:34;7.28;;;3.90;;
19810;SDS011;10065;49.632;8.346;2023-08-20T14:40:02;8.90;;;3.88;;
19810;SDS011;10065;49.632;8.346;2023-08-20T14:42:33;10.43;;;5.45;;
19810;SDS011;10065;49.632;8.346;2023-08-20T14:45:01;8.68;;;5.80;;
19810;SDS011;10065;49.632;8.346;2023-08-20T14:47:30;8.55;;;5.40;;
19810;SDS011;10065;49.632;8.346;2023-08-20T14:49:58;6.88;;;4.25;;
19810;SDS011;10065;49.632;8.346;2023-08-20T14:52:26;7.75;;;4.95;;
19810;SDS011;10065;49.632;8.346;2023-08-20T14:54:54;6.93;;;4.43;;